Time;durP1;ratioP1;P1;durP2;ratioP2;P2;SDS_P1;SDS_P2;PMS_P1;PMS_P2;Temp;Humidity;BMP_temperature;BMP_pressure;BME280_temperature;BME280_humidity;BME280_pressure;Samples;Min_cycle;Max_cycle;Signal;HPM_P1;HPM_P2
2022/09/02 00:01:48;;;;;;;14.05;9.77;;;;;;;21.50;81.28;94525.09;5073931;28;20200;-75
2022/09/02 00:04:17;;;;;;;20.17;11.73;;;;;;;21.49;81.66;94534.22;5073781;28;20182;-75
2022/09/02 00:06:44;;;;;;;19.02;10.35;;;;;;;21.52;81.80;94535.53;5090847;28;20181;-75
2022/09/02 00:09:12;;;;;;;16.23;9.82;;;;;;;21.55;81.92;94538.41;5081537;28;20324;-75
2022/09/02 00:11:39;;;;;;;12.02;7.78;;;;;;;21.57;81.90;94543.50;5073818;28;20186;-75
2022/09/02 00:14:11;;;;;;;13.90;9.45;;;;;;;21.58;81.35;94531.69;5073613;28;20252;-75
2022/09/02 00:16:37;;;;;;;13.85;9.15;;;;;;;21.56;81.43;94536.53;5073499;28;20171;-75
2022/09/02 00:19:04;;;;;;;14.60;8.90;;;;;;;21.32;82.02;94515.94;5073321;28;20257;-75
2022/09/02 00:21:33;;;;;;;18.90;9.35;;;;;;;21.40;82.77;94543.97;5087154;28;20173;-75
2022/09/02 00:23:59;;;;;;;13.43;8.73;;;;;;;21.18;83.82;94546.38;5075979;28;20184;-75
2022/09/02 00:26:24;;;;;;;14.13;8.52;;;;;;;21.08;84.43;94545.38;5073279;28;20170;-75
2022/09/02 00:28:50;;;;;;;15.52;9.98;;;;;;;20.74;85.64;94536.59;5072886;28;20210;-75
2022/09/02 00:31:16;;;;;;;18.55;9.52;;;;;;;20.57;86.22;94531.66;5073182;28;20319;-75
2022/09/02 00:33:41;;;;;;;11.57;9.27;;;;;;;20.68;85.96;94541.19;5073487;28;20178;-75
2022/09/02 00:36:07;;;;;;;15.55;10.98;;;;;;;20.88;84.55;94553.59;5071822;28;20178;-75
2022/09/02 00:38:34;;;;;;;22.17;11.98;;;;;;;20.95;83.99;94554.03;5073200;28;20166;-75
2022/09/02 00:41:04;;;;;;;51.80;32.85;;;;;;;21.06;83.23;94552.06;5073283;28;20167;-75
2022/09/02 00:43:41;;;;;;;17.40;10.73;;;;;;;21.15;83.08;94553.06;5073274;28;20182;-75
2022/09/02 00:46:07;;;;;;;21.50;12.80;;;;;;;21.23;82.14;94554.34;5073000;28;20542;-75
2022/09/02 00:48:36;;;;;;;16.67;10.23;;;;;;;21.15;81.54;94536.97;5072753;28;20285;-75
2022/09/02 00:51:03;;;;;;;30.42;17.98;;;;;;;21.08;81.67;94531.97;5073046;28;20232;-75
2022/09/02 00:53:29;;;;;;;20.52;13.32;;;;;;;21.28;81.53;94547.03;5072880;28;20170;-75
2022/09/02 00:55:57;;;;;;;24.90;16.17;;;;;;;21.37;81.60;94556.03;5071591;28;20178;-75
2022/09/02 00:58:31;;;;;;;13.50;9.63;;;;;;;21.29;81.38;94556.66;5072508;28;20178;-75
2022/09/02 01:00:58;;;;;;;17.70;9.52;;;;;;;21.27;81.70;94560.72;5072611;28;20335;-75
2022/09/02 01:03:26;;;;;;;31.17;16.63;;;;;;;21.33;81.53;94562.25;5072706;28;20198;-75
2022/09/02 01:05:53;;;;;;;18.40;10.75;;;;;;;21.39;81.40;94569.94;5072591;28;20676;-75
2022/09/02 01:08:26;;;;;;;24.83;13.73;;;;;;;21.32;81.77;94557.97;5072553;28;20206;-75
2022/09/02 01:10:54;;;;;;;16.80;10.40;;;;;;;21.38;81.99;94579.06;5072298;28;20179;-75
2022/09/02 01:13:24;;;;;;;12.60;9.45;;;;;;;21.29;82.03;94590.69;5072474;28;20260;-75
2022/09/02 01:15:57;;;;;;;11.80;8.63;;;;;;;21.29;82.32;94585.31;5072605;28;20170;-75
2022/09/02 01:18:28;;;;;;;13.25;8.45;;;;;;;21.25;82.92;94578.94;5072317;28;20170;-75
2022/09/02 01:20:54;;;;;;;15.02;9.63;;;;;;;21.27;82.45;94577.59;5072095;28;20184;-75
2022/09/02 01:23:20;;;;;;;11.88;8.70;;;;;;;21.23;82.63;94576.56;5072207;28;20185;-75
2022/09/02 01:25:46;;;;;;;9.57;7.00;;;;;;;21.33;81.59;94581.81;5072441;28;20540;-75
2022/09/02 01:28:15;;;;;;;9.35;7.80;;;;;;;21.29;82.23;94578.09;5072285;28;20226;-75
2022/09/02 01:30:45;;;;;;;12.40;8.63;;;;;;;21.30;82.32;94577.00;5072065;28;20179;-76
2022/09/02 01:33:10;;;;;;;10.45;8.52;;;;;;;21.37;82.64;94577.47;5072526;28;20216;-75
2022/09/02 01:35:36;;;;;;;12.75;8.10;;;;;;;21.40;82.92;94586.81;5072099;28;20174;-75
2022/09/02 01:38:02;;;;;;;11.23;8.65;;;;;;;21.31;83.79;94586.63;5072392;28;20171;-78
2022/09/02 01:40:30;;;;;;;12.98;7.38;;;;;;;21.25;84.20;94576.28;5072596;28;20166;-77
2022/09/02 01:43:01;;;;;;;14.35;5.45;;;;;;;21.25;83.85;94565.56;5072272;28;20251;-77
2022/09/02 01:45:27;;;;;;;9.60;4.90;;;;;;;21.14;83.92;94550.66;5072412;28;20236;-77
2022/09/02 01:47:52;;;;;;;9.85;5.70;;;;;;;21.01;85.37;94542.22;5072335;28;20202;-77
2022/09/02 01:50:18;;;;;;;11.77;6.93;;;;;;;20.87;85.59;94545.84;5072176;28;20174;-77
2022/09/02 01:52:43;;;;;;;8.85;6.05;;;;;;;20.73;86.17;94526.19;5072107;28;20174;-77
2022/09/02 01:55:10;;;;;;;30.75;18.77;;;;;;;20.63;86.76;94524.38;5072205;28;20629;-77
2022/09/02 01:57:35;;;;;;;8.32;5.90;;;;;;;20.58;87.61;94522.53;5072071;28;20174;-77
2022/09/02 02:00:01;;;;;;;8.95;6.63;;;;;;;20.55;88.25;94508.94;5072045;28;20180;-77
2022/09/02 02:02:27;;;;;;;7.82;5.35;;;;;;;20.30;88.56;94470.63;5071928;28;20170;-77
2022/09/02 02:04:53;;;;;;;4.65;3.85;;;;;;;20.33;87.82;94494.13;5071994;28;20255;-76
2022/09/02 02:07:21;;;;;;;3.78;3.10;;;;;;;20.15;86.50;94486.00;5071823;28;20174;-76
2022/09/02 02:09:47;;;;;;;2.50;2.28;;;;;;;20.21;85.44;94498.25;5071647;28;20181;-76
2022/09/02 02:12:13;;;;;;;5.28;4.03;;;;;;;20.16;85.81;94493.72;5071913;28;20178;-76
2022/09/02 02:14:38;;;;;;;3.08;2.22;;;;;;;19.96;85.57;94437.78;5053919;28;20247;-77
2022/09/02 02:17:04;;;;;;;2.97;2.42;;;;;;;20.31;85.91;94482.13;5071636;28;20174;-76
2022/09/02 02:19:29;;;;;;;7.32;4.60;;;;;;;20.30;85.42;94472.50;5071749;28;20181;-76
2022/09/02 02:21:55;;;;;;;2.88;2.25;;;;;;;20.10;85.54;94436.03;5071591;28;20185;-77
2022/09/02 02:24:20;;;;;;;3.25;2.25;;;;;;;20.32;84.93;94457.00;5071786;28;20648;-76
2022/09/02 02:26:46;;;;;;;2.85;2.38;;;;;;;20.16;83.49;94480.34;5071670;28;20170;-77
2022/09/02 02:29:13;;;;;;;2.72;2.40;;;;;;;19.79;84.33;94450.72;5071358;28;21009;-76
2022/09/02 02:31:39;;;;;;;3.38;2.40;;;;;;;19.96;85.92;94488.53;5071650;28;20910;-77
2022/09/02 02:34:04;;;;;;;3.22;2.50;;;;;;;19.95;86.66;94497.63;5071446;28;20620;-76
2022/09/02 02:36:30;;;;;;;4.68;2.95;;;;;;;19.97;87.30;94498.16;5071396;28;20181;-75
2022/09/02 02:38:56;;;;;;;3.70;2.90;;;;;;;19.98;88.00;94501.63;5071111;28;20170;-76
2022/09/02 02:41:22;;;;;;;3.88;2.95;;;;;;;20.00;87.91;94518.97;5071377;28;20174;-76
2022/09/02 02:43:47;;;;;;;5.63;3.13;;;;;;;20.02;87.76;94513.34;5071300;28;20181;-76
2022/09/02 02:46:14;;;;;;;4.10;3.47;;;;;;;20.02;88.93;94518.69;5071265;28;20174;-76
2022/09/02 02:48:40;;;;;;;4.63;3.70;;;;;;;19.86;88.49;94508.09;5071005;28;20217;-76
2022/09/02 02:51:06;;;;;;;7.55;5.32;;;;;;;19.92;89.56;94508.88;5071045;28;20186;-76
2022/09/02 02:53:33;;;;;;;6.90;4.95;;;;;;;19.57;89.31;94472.47;5071372;28;20174;-76
2022/09/02 02:55:59;;;;;;;18.83;11.88;;;;;;;19.93;89.83;94521.94;5071229;28;20178;-77
2022/09/02 02:58:25;;;;;;;9.15;5.80;;;;;;;19.97;90.03;94514.19;5071180;28;20197;-76
2022/09/02 03:00:50;;;;;;;10.45;7.13;;;;;;;19.84;90.41;94490.75;5071362;28;20259;-77
2022/09/02 03:03:18;;;;;;;4.95;4.45;;;;;;;19.89;90.57;94518.22;5070626;28;20227;-77
2022/09/02 03:05:45;;;;;;;7.20;6.30;;;;;;;19.79;91.28;94514.84;5070245;28;20178;-77
2022/09/02 03:08:11;;;;;;;6.22;4.80;;;;;;;19.85;91.07;94511.84;5070090;28;20202;-77
2022/09/02 03:10:40;;;;;;;8.77;5.75;;;;;;;19.88;90.90;94518.53;5070069;28;20235;-76
2022/09/02 03:13:08;;;;;;;7.63;4.43;;;;;;;19.86;91.13;94513.44;5070194;28;20641;-76
2022/09/02 03:15:35;;;;;;;6.15;4.85;;;;;;;19.86;91.68;94509.97;5070358;28;20178;-76
2022/09/02 03:18:00;;;;;;;7.00;5.10;;;;;;;19.83;92.16;94523.88;5070819;28;20170;-76
2022/09/02 03:20:26;;;;;;;8.77;6.53;;;;;;;19.83;92.22;94521.22;5073815;28;20259;-76
2022/09/02 03:22:55;;;;;;;7.82;5.45;;;;;;;19.89;91.96;94506.75;5056614;28;20546;-76
2022/09/02 03:25:22;;;;;;;11.85;6.60;;;;;;;19.92;92.10;94517.69;5074316;28;20249;-76
2022/09/02 03:27:48;;;;;;;5.82;4.13;;;;;;;19.93;92.41;94519.28;5074304;28;20198;-77
2022/09/02 03:30:18;;;;;;;4.50;4.00;;;;;;;19.92;92.70;94519.56;5073076;28;20197;-76
2022/09/02 03:32:44;;;;;;;4.80;4.32;;;;;;;19.91;92.39;94524.09;5074416;28;20178;-76
2022/09/02 03:35:17;;;;;;;7.88;5.50;;;;;;;19.88;92.23;94523.88;5074384;28;20177;-76
2022/09/02 03:37:44;;;;;;;9.85;7.03;;;;;;;19.91;93.02;94521.41;5074671;28;20179;-76
2022/09/02 03:40:20;;;;;;;12.35;5.93;;;;;;;19.66;93.22;94484.19;5074089;28;20217;-76
2022/09/02 03:42:46;;;;;;;8.18;6.05;;;;;;;19.94;92.93;94531.56;5073976;28;20621;-76
2022/09/02 03:45:14;;;;;;;7.18;4.78;;;;;;;19.84;93.04;94507.56;5073856;28;20221;-76
2022/09/02 03:47:44;;;;;;;9.02;6.63;;;;;;;20.01;92.84;94533.13;5074077;28;20206;-76
2022/09/02 03:50:10;;;;;;;9.70;7.05;;;;;;;20.03;92.56;94536.31;5074030;28;20608;-76
2022/09/02 03:52:36;;;;;;;17.25;11.02;;;;;;;20.05;92.20;94544.88;5073819;28;20179;-76
2022/09/02 03:55:03;;;;;;;24.08;15.35;;;;;;;20.03;92.26;94547.81;5073931;28;20178;-76
2022/09/02 03:57:29;;;;;;;8.43;5.72;;;;;;;19.97;92.15;94556.94;5073717;28;20182;-76
2022/09/02 03:59:55;;;;;;;10.05;7.13;;;;;;;19.69;93.35;94555.75;5074317;28;20626;-77
2022/09/02 04:02:20;;;;;;;10.68;8.23;;;;;;;19.50;94.02;94542.22;5074269;28;20197;-77
2022/09/02 04:04:46;;;;;;;10.80;8.23;;;;;;;19.62;93.87;94557.94;5074185;28;20265;-77
2022/09/02 04:07:12;;;;;;;14.73;9.88;;;;;;;19.69;92.93;94557.63;5062085;28;20182;-77
2022/09/02 04:09:37;;;;;;;26.08;17.80;;;;;;;19.72;93.37;94563.19;5074124;28;20616;-77
2022/09/02 04:12:04;;;;;;;30.30;18.63;;;;;;;19.78;93.75;94572.81;5074138;28;20611;-77
2022/09/02 04:14:29;;;;;;;9.70;6.57;;;;;;;19.82;93.74;94576.50;5073892;28;20185;-77
2022/09/02 04:16:55;;;;;;;15.27;8.10;;;;;;;19.78;93.74;94577.34;5073789;28;20174;-77
2022/09/02 04:19:21;;;;;;;12.88;8.90;;;;;;;19.82;93.87;94584.53;5073786;28;20216;-77
2022/09/02 04:21:46;;;;;;;11.15;7.93;;;;;;;19.88;93.97;94586.13;5073604;28;20240;-78
2022/09/02 04:24:12;;;;;;;12.38;8.98;;;;;;;19.92;93.89;94586.34;5073888;28;20186;-77
2022/09/02 04:26:38;;;;;;;18.00;11.68;;;;;;;19.96;93.92;94587.41;5074161;28;20235;-77
2022/09/02 04:29:05;;;;;;;14.80;9.45;;;;;;;20.00;93.00;94582.28;5073838;28;20253;-78
2022/09/02 04:31:30;;;;;;;13.00;9.52;;;;;;;20.00;93.49;94584.97;5073468;28;20178;-76
2022/09/02 04:33:57;;;;;;;9.73;7.28;;;;;;;19.89;93.33;94578.91;5073981;28;20182;-77
2022/09/02 04:36:23;;;;;;;11.38;6.93;;;;;;;19.93;94.25;94591.41;5073684;28;20186;-76
2022/09/02 04:38:48;;;;;;;9.77;7.15;;;;;;;19.95;94.20;94591.97;5073807;28;20231;-77
2022/09/02 04:41:17;;;;;;;10.90;7.40;;;;;;;19.90;94.44;94599.97;5073574;28;20182;-76
2022/09/02 04:43:45;;;;;;;10.60;7.97;;;;;;;19.90;94.54;94597.31;5073686;28;20269;-77
2022/09/02 04:46:13;;;;;;;14.05;9.40;;;;;;;19.93;94.88;94598.63;5073769;28;20552;-77
2022/09/02 04:48:39;;;;;;;11.80;9.02;;;;;;;19.92;94.68;94599.72;5073426;28;20202;-77
2022/09/02 04:51:15;;;;;;;10.27;7.40;;;;;;;19.93;94.49;94596.78;5073496;28;20174;-77
2022/09/02 04:53:42;;;;;;;9.32;7.43;;;;;;;19.79;93.23;94574.41;5073260;28;20174;-76
2022/09/02 04:56:10;;;;;;;11.35;8.35;;;;;;;19.98;92.50;94607.41;5073150;28;20185;-76
2022/09/02 04:58:36;;;;;;;11.23;7.47;;;;;;;20.00;93.03;94603.69;5073370;28;20616;-77
2022/09/02 05:01:09;;;;;;;13.68;8.50;;;;;;;20.02;92.76;94598.88;5073413;28;20178;-77
2022/09/02 05:03:36;;;;;;;11.52;8.27;;;;;;;19.98;92.86;94602.06;5073106;28;20178;-77
2022/09/02 05:06:05;;;;;;;11.75;8.15;;;;;;;20.04;94.11;94612.75;5073346;28;20186;-77
2022/09/02 05:08:31;;;;;;;10.93;7.97;;;;;;;20.06;94.43;94613.28;5072994;28;20237;-76
2022/09/02 05:10:57;;;;;;;13.25;8.88;;;;;;;20.09;94.79;94610.03;5073308;28;20206;-77
2022/09/02 05:13:23;;;;;;;16.63;11.77;;;;;;;20.11;94.02;94614.03;5073055;28;20182;-77
2022/09/02 05:15:48;;;;;;;27.23;17.17;;;;;;;20.00;94.42;94593.00;5073160;28;20178;-77
2022/09/02 05:18:14;;;;;;;15.15;10.27;;;;;;;19.98;94.15;94573.78;5073325;28;20191;-76
2022/09/02 05:20:44;;;;;;;12.60;9.52;;;;;;;20.05;94.46;94603.66;5072831;28;20178;-77
2022/09/02 05:23:10;;;;;;;21.05;13.35;;;;;;;20.05;95.69;94609.00;5072959;28;20209;-77
2022/09/02 05:25:37;;;;;;;12.63;9.20;;;;;;;19.89;94.86;94586.91;5072907;28;20210;-76
2022/09/02 05:28:04;;;;;;;13.77;9.95;;;;;;;19.86;95.51;94598.16;5074891;28;20213;-77
2022/09/02 05:30:29;;;;;;;15.45;10.68;;;;;;;19.90;96.57;94615.22;5070599;28;20255;-77
2022/09/02 05:32:54;;;;;;;28.42;20.55;;;;;;;19.78;96.92;94606.72;5078482;28;20178;-76
2022/09/02 05:35:20;;;;;;;26.50;17.83;;;;;;;19.95;96.46;94616.00;5081755;28;20181;-77
2022/09/02 05:37:46;;;;;;;11.63;9.13;;;;;;;20.08;96.00;94611.91;5074570;28;20174;-77
2022/09/02 05:40:11;;;;;;;14.65;9.05;;;;;;;20.18;96.24;94611.84;5080243;28;20182;-77
2022/09/02 05:42:38;;;;;;;15.85;9.65;;;;;;;20.26;95.26;94608.59;5055948;28;20545;-77
2022/09/02 05:45:05;;;;;;;12.82;8.10;;;;;;;20.31;93.23;94607.78;5083311;28;20185;-76
2022/09/02 05:47:33;;;;;;;13.52;9.48;;;;;;;20.34;91.72;94608.03;5092390;28;20197;-76
2022/09/02 05:50:00;;;;;;;25.25;15.52;;;;;;;20.43;91.44;94600.22;5082393;28;20177;-76
2022/09/02 05:52:26;;;;;;;18.38;10.57;;;;;;;20.52;91.50;94603.91;5072053;28;20182;-76
2022/09/02 05:54:52;;;;;;;12.27;9.70;;;;;;;20.42;91.02;94566.53;5082873;28;20257;-76
2022/09/02 05:57:19;;;;;;;12.45;8.82;;;;;;;20.63;91.10;94597.41;5058526;28;20273;-77
2022/09/02 05:59:47;;;;;;;15.15;10.07;;;;;;;20.60;90.62;94603.31;5057398;28;20191;-76
2022/09/02 06:02:14;;;;;;;14.18;9.85;;;;;;;20.57;90.52;94582.50;5065912;28;20645;-76
2022/09/02 06:04:43;;;;;;;16.38;10.95;;;;;;;20.55;90.30;94562.44;5064995;28;20178;-76
2022/09/02 06:07:09;;;;;;;16.75;11.82;;;;;;;20.71;89.43;94572.75;5064916;28;20186;-76
2022/09/02 06:09:34;;;;;;;17.45;11.38;;;;;;;20.97;89.80;94596.59;5061745;28;20178;-76
2022/09/02 06:12:00;;;;;;;18.40;10.32;;;;;;;20.94;90.51;94573.84;5071230;28;20249;-76
2022/09/02 06:14:26;;;;;;;14.50;10.55;;;;;;;21.16;90.44;94597.50;5071374;28;20174;-76
2022/09/02 06:16:53;;;;;;;21.15;9.52;;;;;;;21.24;89.20;94609.47;5071028;28;20182;-77
2022/09/02 06:19:20;;;;;;;13.63;8.88;;;;;;;21.28;88.47;94611.31;5073908;28;20227;-76
2022/09/02 06:21:46;;;;;;;12.13;8.93;;;;;;;21.33;88.91;94607.78;5076221;28;20645;-76
2022/09/02 06:24:12;;;;;;;10.82;7.55;;;;;;;21.16;85.42;94589.44;5091501;28;20606;-76
2022/09/02 06:26:39;;;;;;;11.48;8.00;;;;;;;21.29;86.17;94620.94;5071476;28;20174;-76
2022/09/02 06:29:05;;;;;;;15.43;8.70;;;;;;;21.28;86.79;94616.66;5076162;28;20224;-76
2022/09/02 06:31:31;;;;;;;15.43;7.72;;;;;;;21.30;86.18;94621.72;5079126;28;20191;-76
2022/09/02 06:33:58;;;;;;;11.73;6.60;;;;;;;21.27;83.90;94616.97;5069668;28;20762;-76
2022/09/02 06:36:25;;;;;;;7.57;6.10;;;;;;;21.03;83.58;94612.31;5077120;28;20212;-76
2022/09/02 06:38:52;;;;;;;9.48;6.40;;;;;;;21.04;84.95;94618.47;5069381;28;20174;-76
2022/09/02 06:41:22;;;;;;;12.65;6.70;;;;;;;21.16;84.64;94623.47;5071593;28;20173;-77
2022/09/02 06:43:48;;;;;;;14.68;6.63;;;;;;;21.22;83.33;94615.13;5071345;28;20178;-76
2022/09/02 06:46:20;;;;;;;13.00;6.70;;;;;;;21.15;83.84;94611.16;5071269;28;20182;-75
2022/09/02 06:48:47;;;;;;;8.43;6.63;;;;;;;21.21;84.33;94629.59;5071188;28;20198;-76
2022/09/02 06:51:21;;;;;;;8.15;6.60;;;;;;;21.19;84.90;94634.41;5070762;28;20670;-75
2022/09/02 06:53:46;;;;;;;10.23;7.00;;;;;;;21.26;84.53;94634.91;5069726;28;20656;-75
2022/09/02 06:56:12;;;;;;;10.25;6.40;;;;;;;21.26;83.59;94629.56;5070721;28;20253;-75
2022/09/02 06:58:38;;;;;;;12.35;6.82;;;;;;;21.27;83.76;94636.50;5070496;28;20198;-76
2022/09/02 07:01:03;;;;;;;9.38;7.28;;;;;;;21.28;83.89;94634.59;5070260;28;20174;-76
2022/09/02 07:06:12;;;;;;;8.85;6.20;;;;;;;21.24;83.51;94642.41;5067483;28;20193;-76
2022/09/02 07:08:40;;;;;;;7.47;6.05;;;;;;;21.09;83.20;94634.50;5069800;28;20198;-76
2022/09/02 07:11:07;;;;;;;9.80;7.07;;;;;;;21.08;83.94;94624.88;5070306;28;20193;-75
2022/09/02 07:13:33;;;;;;;11.07;6.25;;;;;;;21.24;83.62;94646.97;5069534;28;20216;-76
2022/09/02 07:15:59;;;;;;;11.02;6.47;;;;;;;21.23;83.14;94635.47;5070445;28;20253;-76
2022/09/02 07:18:26;;;;;;;8.98;6.00;;;;;;;21.33;83.27;94653.31;5072236;28;20174;-76
2022/09/02 07:20:53;;;;;;;8.77;6.75;;;;;;;21.29;83.50;94638.88;5090992;28;20178;-76
2022/09/02 07:23:19;;;;;;;10.90;7.47;;;;;;;21.39;82.16;94655.66;5090971;28;20571;-76
2022/09/02 07:25:44;;;;;;;10.55;6.97;;;;;;;21.48;83.17;94660.41;5084780;28;20182;-77
2022/09/02 07:28:10;;;;;;;9.07;6.90;;;;;;;21.55;82.49;94655.50;5069905;28;20247;-76
2022/09/02 07:30:38;;;;;;;8.20;6.97;;;;;;;21.67;82.84;94658.59;5070585;28;20185;-75
2022/09/02 07:33:04;;;;;;;11.38;7.82;;;;;;;21.73;82.00;94658.25;5072772;28;20198;-76
2022/09/02 07:35:29;;;;;;;11.55;7.68;;;;;;;21.69;81.75;94638.47;5052291;28;20177;-76
2022/09/02 07:37:55;;;;;;;10.63;7.40;;;;;;;21.94;82.07;94656.13;5069748;28;20163;-76
2022/09/02 07:40:22;;;;;;;11.07;7.38;;;;;;;21.94;81.74;94655.34;5070031;28;20170;-77
2022/09/02 07:42:47;;;;;;;12.48;7.93;;;;;;;21.93;81.08;94648.38;5069952;28;20186;-76
2022/09/02 07:45:13;;;;;;;11.00;8.20;;;;;;;21.64;81.59;94640.38;5068549;28;20186;-76
2022/09/02 07:47:38;;;;;;;13.02;7.90;;;;;;;21.71;81.49;94654.25;5070186;28;20600;-76
2022/09/02 07:50:08;;;;;;;10.95;7.55;;;;;;;21.72;81.48;94648.59;5061898;28;20524;-76
2022/09/02 07:52:33;;;;;;;13.23;8.65;;;;;;;21.66;82.48;94649.75;5069891;28;20181;-75
2022/09/02 07:54:59;;;;;;;10.77;7.05;;;;;;;21.74;81.34;94656.38;5070070;28;20536;-76
2022/09/02 07:57:24;;;;;;;9.38;6.57;;;;;;;21.71;81.39;94628.25;5070288;28;20561;-76
2022/09/02 07:59:50;;;;;;;12.13;7.30;;;;;;;22.02;80.93;94655.53;5070627;28;20170;-77
2022/09/02 08:02:17;;;;;;;11.70;6.65;;;;;;;21.90;80.02;94638.22;5052887;28;20176;-77
2022/09/02 08:04:43;;;;;;;9.77;7.55;;;;;;;21.70;80.76;94658.84;5070451;28;20174;-76
2022/09/02 08:07:09;;;;;;;10.00;7.88;;;;;;;21.70;81.42;94669.56;5074816;28;20201;-76
2022/09/02 08:09:34;;;;;;;9.52;7.63;;;;;;;21.71;81.01;94673.81;5073655;28;20245;-75
2022/09/02 08:12:00;;;;;;;8.30;6.70;;;;;;;21.77;80.81;94674.56;5074787;28;20684;-76
2022/09/02 08:14:27;;;;;;;8.90;6.60;;;;;;;21.73;80.54;94658.25;5073932;28;20181;-77
2022/09/02 08:16:53;;;;;;;10.98;6.80;;;;;;;21.79;80.91;94680.44;5073986;28;20253;-76
2022/09/02 08:19:20;;;;;;;11.73;6.55;;;;;;;21.87;80.28;94677.13;5073689;28;20171;-77
2022/09/02 08:21:46;;;;;;;9.07;6.13;;;;;;;22.04;78.49;94688.22;5055603;28;20627;-76
2022/09/02 08:24:11;;;;;;;8.00;5.75;;;;;;;22.08;79.00;94681.19;5073452;28;20269;-77
2022/09/02 08:26:37;;;;;;;9.88;6.28;;;;;;;22.20;78.24;94673.53;5055401;28;20173;-75
2022/09/02 08:29:04;;;;;;;7.82;6.18;;;;;;;22.18;78.74;94670.34;5073392;28;20214;-78
2022/09/02 08:31:30;;;;;;;7.72;5.32;;;;;;;22.25;78.23;94680.72;5073485;28;20190;-76
2022/09/02 08:33:56;;;;;;;9.70;5.65;;;;;;;21.99;77.86;94660.66;5073329;28;20708;-75
2022/09/02 08:36:22;;;;;;;10.30;6.10;;;;;;;22.11;78.10;94677.94;5072033;28;20179;-78
2022/09/02 08:38:47;;;;;;;9.77;6.88;;;;;;;22.04;78.12;94665.97;5074072;28;20158;-77
2022/09/02 08:41:22;;;;;;;11.98;6.65;;;;;;;22.10;78.58;94675.53;5073380;28;20178;-76
2022/09/02 08:43:50;;;;;;;14.10;6.03;;;;;;;22.12;78.06;94676.88;5073076;28;20264;-75
2022/09/02 08:46:16;;;;;;;8.82;6.43;;;;;;;22.05;78.10;94672.94;5072742;28;20269;-76
2022/09/02 08:48:52;;;;;;;7.57;6.70;;;;;;;22.03;78.36;94659.81;5073211;28;20194;-77
2022/09/02 08:51:30;;;;;;;9.25;6.60;;;;;;;22.12;78.21;94671.50;5072492;28;20181;-75
2022/09/02 08:54:02;;;;;;;7.72;5.68;;;;;;;22.18;77.86;94670.34;5072986;28;20155;-77
2022/09/02 08:56:28;;;;;;;12.13;6.40;;;;;;;22.17;76.95;94655.34;5073206;28;20715;-77
2022/09/02 08:58:55;;;;;;;8.40;5.57;;;;;;;22.31;77.89;94665.38;5072723;28;20171;-77
2022/09/02 09:01:38;;;;;;;9.70;6.25;;;;;;;22.48;77.24;94669.16;5072895;28;20269;-76
2022/09/02 09:04:36;;;;;;;7.82;6.80;;;;;;;22.57;77.29;94659.34;5072977;28;20217;-76
2022/09/02 09:07:32;;;;;;;8.23;6.38;;;;;;;22.68;77.41;94656.50;5072564;28;20178;-77
2022/09/02 09:10:18;;;;;;;10.15;6.45;;;;;;;22.74;76.37;94652.69;5072340;28;20240;-77
2022/09/02 09:12:58;;;;;;;13.40;7.35;;;;;;;22.84;76.38;94660.59;5071570;28;20548;-77
2022/09/02 09:15:32;;;;;;;17.10;7.05;;;;;;;22.89;75.74;94660.53;5072274;28;20178;-77
2022/09/02 09:18:01;;;;;;;17.08;10.43;;;;;;;22.90;76.08;94659.44;5071773;28;20193;-77
2022/09/02 09:20:33;;;;;;;12.43;8.23;;;;;;;22.82;74.94;94660.91;5073169;28;20233;-77
2022/09/02 09:23:00;;;;;;;15.05;7.97;;;;;;;22.83;75.85;94659.78;5072537;28;20647;-76
2022/09/02 09:25:31;;;;;;;11.40;9.00;;;;;;;22.87;76.59;94660.81;5071642;28;20171;-75
2022/09/02 09:27:57;;;;;;;13.45;7.45;;;;;;;22.93;76.29;94645.41;5065419;28;20237;-76
2022/09/02 09:30:23;;;;;;;8.70;6.78;;;;;;;23.05;76.72;94653.00;5072316;28;20182;-78
2022/09/02 09:32:56;;;;;;;25.60;8.82;;;;;;;23.09;75.32;94635.25;5073013;28;20220;-77
2022/09/02 09:35:22;;;;;;;12.05;8.70;;;;;;;23.23;75.55;94646.81;5073079;28;20189;-78
2022/09/02 09:37:50;;;;;;;9.48;7.45;;;;;;;23.07;75.69;94635.53;5072921;28;20173;-78
2022/09/02 09:40:24;;;;;;;11.07;7.20;;;;;;;23.05;78.12;94642.28;5072667;28;20179;-77
2022/09/02 09:42:54;;;;;;;15.18;8.40;;;;;;;23.00;78.71;94639.69;5072119;28;20185;-77
2022/09/02 09:45:54;;;;;;;17.92;7.40;;;;;;;23.02;78.10;94643.66;5070849;28;20175;-76
2022/09/02 09:48:29;;;;;;;15.25;11.00;;;;;;;23.20;78.59;94639.31;5072069;28;20202;-77
2022/09/02 09:50:55;;;;;;;11.25;8.48;;;;;;;23.31;77.47;94641.56;5071223;28;20624;-76
2022/09/02 09:53:23;;;;;;;11.95;7.03;;;;;;;23.44;77.21;94637.28;5072049;28;20265;-77
2022/09/02 09:55:49;;;;;;;11.38;6.85;;;;;;;23.53;76.63;94654.34;5070902;28;20185;-77
2022/09/02 09:58:14;;;;;;;14.40;9.13;;;;;;;23.56;76.67;94643.00;5071268;28;20170;-77
2022/09/02 10:00:40;;;;;;;11.35;8.55;;;;;;;23.59;76.03;94641.63;5071068;28;20705;-78
2022/09/02 10:03:07;;;;;;;10.85;7.90;;;;;;;23.66;76.28;94642.81;5071454;28;20166;-77
2022/09/02 10:05:36;;;;;;;10.65;8.13;;;;;;;23.60;75.81;94646.72;5071153;28;20368;-77
2022/09/02 10:08:19;;;;;;;15.93;10.55;;;;;;;23.59;74.75;94647.00;5063256;28;20195;-77
2022/09/02 10:11:02;;;;;;;13.13;8.70;;;;;;;23.58;75.72;94653.47;5071691;28;20260;-77
2022/09/02 10:13:31;;;;;;;13.30;8.82;;;;;;;23.66;75.74;94640.13;5071902;28;20170;-76
2022/09/02 10:16:06;;;;;;;15.05;9.90;;;;;;;23.55;76.15;94641.41;5071751;28;20177;-77
2022/09/02 10:18:44;;;;;;;18.45;12.60;;;;;;;23.47;75.90;94609.81;5071480;28;20653;-76
2022/09/02 10:21:34;;;;;;;16.42;10.48;;;;;;;23.75;75.22;94642.13;5070046;28;20201;-76
2022/09/02 10:24:12;;;;;;;15.32;9.82;;;;;;;23.80;74.73;94645.50;5071734;28;20170;-77
2022/09/02 10:26:47;;;;;;;12.68;7.50;;;;;;;23.81;74.93;94649.78;5071572;28;20185;-77
2022/09/02 10:29:40;;;;;;;9.40;7.22;;;;;;;23.85;74.92;94639.25;5071030;28;20225;-77
2022/09/02 10:32:19;;;;;;;14.65;9.70;;;;;;;23.85;75.16;94644.63;5071240;28;20178;-77
2022/09/02 10:35:02;;;;;;;9.98;7.55;;;;;;;23.89;74.32;94645.59;5071409;28;20559;-77
2022/09/02 10:37:50;;;;;;;28.23;18.65;;;;;;;23.84;74.60;94638.44;5071272;28;20171;-77
2022/09/02 10:40:19;;;;;;;14.75;9.13;;;;;;;23.99;74.83;94634.66;5071853;28;20202;-77
2022/09/02 10:43:08;;;;;;;10.55;8.52;;;;;;;24.05;73.72;94634.22;5071519;28;20205;-77
2022/09/02 10:45:44;;;;;;;15.60;10.48;;;;;;;24.15;73.47;94644.00;5062932;28;20180;-77
2022/09/02 10:48:18;;;;;;;12.52;8.43;;;;;;;24.20;74.19;94640.41;5071178;28;20220;-77
2022/09/02 10:50:54;;;;;;;10.45;8.10;;;;;;;24.22;73.66;94643.59;5071334;28;20181;-77
2022/09/02 10:53:42;;;;;;;14.73;8.85;;;;;;;24.09;74.81;94629.06;5070880;28;20257;-77
2022/09/02 10:56:20;;;;;;;9.38;7.55;;;;;;;24.23;72.90;94635.25;5071142;28;20181;-78
2022/09/02 10:58:48;;;;;;;12.73;8.18;;;;;;;24.32;71.87;94638.81;5062536;28;20170;-78
2022/09/02 11:01:23;;;;;;;10.98;8.50;;;;;;;24.46;72.26;94640.69;5052593;28;20186;-77
2022/09/02 11:03:48;;;;;;;14.30;7.68;;;;;;;24.62;72.46;94636.56;5070163;28;20200;-77
2022/09/02 11:06:21;;;;;;;11.57;7.65;;;;;;;24.71;73.22;94629.34;5070246;28;20206;-77
2022/09/02 11:08:54;;;;;;;15.38;7.93;;;;;;;24.87;71.77;94624.41;5070022;28;20256;-77
2022/09/02 11:11:29;;;;;;;10.10;7.05;;;;;;;25.10;72.03;94618.72;5071192;28;20570;-77
2022/09/02 11:14:04;;;;;;;9.63;7.60;;;;;;;25.21;68.43;94623.84;5070951;28;20185;-77
2022/09/02 11:16:35;;;;;;;11.25;7.60;;;;;;;25.27;67.81;94630.69;5071125;28;20172;-77
2022/09/02 11:19:00;;;;;;;16.40;8.15;;;;;;;25.10;66.89;94628.69;5070779;28;20166;-77
2022/09/02 11:21:37;;;;;;;11.48;7.55;;;;;;;24.88;69.44;94624.09;5070516;28;20266;-76
2022/09/02 11:24:26;;;;;;;15.32;7.75;;;;;;;24.83;68.44;94624.19;5070782;28;20189;-78
2022/09/02 11:27:08;;;;;;;9.77;7.05;;;;;;;24.83;68.28;94618.81;5070731;28;20158;-77
2022/09/02 11:29:42;;;;;;;9.20;6.78;;;;;;;24.81;67.35;94623.72;5067759;28;20222;-77
2022/09/02 11:32:16;;;;;;;14.65;8.07;;;;;;;24.73;68.14;94617.19;5073845;28;20170;-77
2022/09/02 11:34:50;;;;;;;9.50;7.05;;;;;;;24.75;66.95;94622.25;5092034;28;20543;-77
2022/09/02 11:37:52;;;;;;;10.25;7.47;;;;;;;24.66;67.26;94614.09;5091361;28;20663;-77